Time;durP1;ratioP1;P1;durP2;ratioP2;P2;SDS_P1;SDS_P2;PMS_P1;PMS_P2;Temp;Humidity;BMP_temperature;BMP_pressure;BME280_temperature;BME280_humidity;BME280_pressure;Samples;Min_cycle;Max_cycle;Signal;HPM_P1;HPM_P2
2022/01/28 00:00:32;;;;;;;21.10;3.10;;;6.10;99.90;;;;;;6277811;22;20020;-87
2022/01/28 00:03:16;;;;;;;13.57;2.70;;;6.10;99.90;;;;;;6250720;22;20008;-86
2022/01/28 00:05:42;;;;;;;16.02;3.10;;;6.20;99.90;;;;;;6249966;22;20020;-86
2022/01/28 00:08:08;;;;;;;15.55;3.25;;;6.20;99.90;;;;;;6250122;22;20090;-86
2022/01/28 00:10:35;;;;;;;16.55;3.67;;;6.10;99.90;;;;;;6277520;22;20020;-86
2022/01/28 00:19:47;;;;;;;18.88;4.25;;;6.10;99.90;;;;;;6277670;22;20020;-86
2022/01/28 00:38:08;;;;;;;16.13;2.80;;;6.30;99.90;;;;;;6168454;22;20121;-86
2022/01/28 00:40:34;;;;;;;11.00;1.70;;;6.30;99.90;;;;;;6250023;22;20023;-86
2022/01/28 00:43:01;;;;;;;12.55;3.15;;;6.20;99.90;;;;;;6249868;22;20015;-86
2022/01/28 00:45:27;;;;;;;22.45;4.13;;;6.10;99.90;;;;;;6249862;22;20019;-86
2022/01/28 00:47:53;;;;;;;27.48;2.53;;;6.10;99.90;;;;;;6249976;22;20024;-86
2022/01/28 00:50:19;;;;;;;21.23;2.72;;;6.00;99.90;;;;;;6249739;22;20137;-86
2022/01/28 00:52:44;;;;;;;15.77;2.58;;;6.00;99.90;;;;;;6277316;22;20012;-87
2022/01/28 00:55:10;;;;;;;15.63;3.20;;;6.00;99.90;;;;;;6277327;22;20097;-87
2022/01/28 00:57:36;;;;;;;14.93;2.97;;;6.00;99.90;;;;;;6249883;22;20458;-87
2022/01/28 01:00:08;;;;;;;34.10;4.18;;;5.90;99.90;;;;;;6277278;22;20069;-87
2022/01/28 01:02:33;;;;;;;18.70;3.65;;;6.00;99.90;;;;;;6249926;22;20016;-87
2022/01/28 01:04:59;;;;;;;16.50;3.38;;;6.00;99.90;;;;;;6276901;22;20018;-87
2022/01/28 01:07:25;;;;;;;12.25;2.80;;;6.00;99.90;;;;;;6249927;22;20015;-87
2022/01/28 01:09:51;;;;;;;19.33;3.72;;;6.00;99.90;;;;;;6244466;23;20016;-87
2022/01/28 01:12:19;;;;;;;18.83;3.35;;;6.00;99.90;;;;;;6244800;23;20012;-87
2022/01/28 01:14:45;;;;;;;17.17;2.70;;;6.00;99.90;;;;;;6244710;23;20020;-87
2022/01/28 01:20:34;;;;;;;13.02;2.58;;;6.00;99.90;;;;;;6185463;23;20064;-86
2022/01/28 01:25:28;;;;;;;27.85;5.07;;;6.00;99.90;;;;;;6223143;22;19923;-86
2022/01/28 01:27:56;;;;;;;15.57;3.22;;;5.90;99.90;;;;;;6248880;22;20020;-86
2022/01/28 01:30:25;;;;;;;18.00;3.60;;;5.90;99.90;;;;;;6248488;22;20020;-86
2022/01/28 01:32:51;;;;;;;23.60;4.65;;;5.90;99.90;;;;;;6246818;23;20019;-88
2022/01/28 01:35:17;;;;;;;28.10;4.15;;;5.90;99.90;;;;;;6248114;22;20020;-86
2022/01/28 01:37:42;;;;;;;17.23;3.58;;;6.00;99.90;;;;;;6246636;23;20047;-86
2022/01/28 01:40:09;;;;;;;15.55;2.60;;;6.10;99.90;;;;;;6246519;23;20103;-87
2022/01/28 01:53:21;;;;;;;20.60;3.22;;;6.30;99.90;;;;;;6246464;23;20020;-85
2022/01/28 01:55:47;;;;;;;12.38;2.38;;;6.30;99.90;;;;;;6248274;22;20012;-85
2022/01/28 01:58:13;;;;;;;24.95;4.15;;;6.20;99.90;;;;;;6246407;23;20048;-85
2022/01/28 02:00:39;;;;;;;21.42;4.18;;;6.20;99.90;;;;;;6246398;23;20019;-86
2022/01/28 02:03:04;;;;;;;22.92;4.55;;;6.20;99.90;;;;;;6246385;23;20023;-85
2022/01/28 02:05:30;;;;;;;20.17;5.15;;;6.10;99.90;;;;;;6246405;23;20058;-85
2022/01/28 02:08:02;;;;;;;32.13;7.00;;;6.10;99.90;;;;;;6246075;23;20020;-85
2022/01/28 02:10:28;;;;;;;22.83;4.30;;;6.10;99.90;;;;;;6248307;22;20450;-85
2022/01/28 02:12:54;;;;;;;30.08;4.65;;;6.00;99.90;;;;;;6246273;23;20047;-85
2022/01/28 02:15:19;;;;;;;44.15;5.20;;;6.10;99.90;;;;;;6246323;23;20109;-85
2022/01/28 02:17:45;;;;;;;25.35;5.38;;;6.10;99.90;;;;;;6248105;22;20020;-85
2022/01/28 02:20:19;;;;;;;21.52;3.47;;;6.10;99.90;;;;;;6246215;23;20020;-86
2022/01/28 02:22:45;;;;;;;24.67;3.35;;;6.20;99.90;;;;;;6247770;22;20340;-85
2022/01/28 02:25:26;;;;;;;21.80;3.25;;;6.30;99.90;;;;;;6246316;23;20447;-86
2022/01/28 02:27:52;;;;;;;19.38;3.53;;;6.30;99.90;;;;;;6246272;23;20062;-86
2022/01/28 02:30:18;;;;;;;27.27;4.18;;;6.30;99.90;;;;;;6246059;23;20020;-86
2022/01/28 02:32:45;;;;;;;19.00;3.17;;;6.30;99.90;;;;;;6247720;22;20016;-86
2022/01/28 02:35:11;;;;;;;12.35;3.15;;;6.30;99.90;;;;;;6247621;22;20019;-85
2022/01/28 02:37:37;;;;;;;23.92;3.83;;;6.30;99.90;;;;;;6245983;23;20020;-85
2022/01/28 02:40:05;;;;;;;15.43;3.08;;;6.30;99.90;;;;;;6247515;22;20452;-85
2022/01/28 02:42:46;;;;;;;15.32;3.78;;;6.30;99.90;;;;;;6247860;22;20016;-85
2022/01/28 02:45:21;;;;;;;22.33;3.75;;;6.30;99.90;;;;;;6246058;23;20095;-85
2022/01/28 02:47:50;;;;;;;17.33;2.92;;;6.30;99.90;;;;;;6245999;23;20024;-85
2022/01/28 02:50:18;;;;;;;14.98;3.90;;;6.20;99.90;;;;;;6247340;22;20390;-85
2022/01/28 02:53:02;;;;;;;19.85;4.07;;;6.30;99.90;;;;;;6247607;22;20016;-86
2022/01/28 02:55:30;;;;;;;9.50;2.58;;;6.30;99.90;;;;;;6248141;22;20012;-85
2022/01/28 02:58:13;;;;;;;16.70;3.08;;;6.20;99.90;;;;;;6245843;23;20016;-86
2022/01/28 03:00:40;;;;;;;16.00;3.60;;;6.20;99.90;;;;;;6247803;22;20070;-85
2022/01/28 03:03:07;;;;;;;15.15;3.25;;;6.20;99.90;;;;;;6247763;22;20016;-83
2022/01/28 03:05:34;;;;;;;14.68;2.42;;;6.10;99.90;;;;;;6245735;23;20027;-83
2022/01/28 03:08:03;;;;;;;25.92;4.60;;;6.20;99.90;;;;;;6253516;22;20020;-83
2022/01/28 03:13:14;;;;;;;19.55;3.95;;;6.20;99.90;;;;;;6278241;22;20027;-84
2022/01/28 03:15:41;;;;;;;23.20;4.45;;;6.20;99.90;;;;;;6250826;22;20023;-84
2022/01/28 03:18:14;;;;;;;22.35;2.97;;;6.20;99.90;;;;;;6250614;22;20452;-84
2022/01/28 03:20:44;;;;;;;18.23;3.20;;;6.20;99.90;;;;;;6250705;22;20455;-83
2022/01/28 03:23:11;;;;;;;14.00;2.55;;;6.20;99.90;;;;;;6251031;22;20443;-84
2022/01/28 03:25:42;;;;;;;27.25;3.85;;;6.20;99.90;;;;;;6250581;22;20016;-84
2022/01/28 03:28:07;;;;;;;12.88;2.22;;;6.20;99.90;;;;;;6278068;22;20023;-85
2022/01/28 03:30:33;;;;;;;15.77;4.00;;;6.20;99.90;;;;;;6250428;22;20027;-85
2022/01/28 03:32:58;;;;;;;14.27;2.97;;;6.20;99.90;;;;;;6250713;22;20051;-84
2022/01/28 03:35:24;;;;;;;15.75;3.00;;;6.20;99.90;;;;;;6278141;22;20531;-85
2022/01/28 03:37:58;;;;;;;25.77;4.47;;;6.20;99.90;;;;;;6251446;22;20016;-84
2022/01/28 03:40:24;;;;;;;22.65;3.40;;;6.20;99.90;;;;;;6250067;22;20055;-83
2022/01/28 03:42:50;;;;;;;13.43;3.58;;;6.20;99.90;;;;;;6250455;22;20436;-83
2022/01/28 03:45:16;;;;;;;14.45;3.22;;;6.20;99.90;;;;;;6250531;22;20018;-84
2022/01/28 03:47:41;;;;;;;21.60;3.65;;;6.20;99.90;;;;;;6250504;22;20019;-83
2022/01/28 03:50:07;;;;;;;13.63;3.42;;;6.20;99.90;;;;;;6277448;22;20054;-83
2022/01/28 03:52:33;;;;;;;25.60;4.15;;;6.20;99.90;;;;;;6277547;22;20024;-83
2022/01/28 03:54:58;;;;;;;24.60;3.80;;;6.20;99.90;;;;;;6250390;22;20022;-83
2022/01/28 03:57:24;;;;;;;14.10;3.30;;;6.20;99.90;;;;;;6250411;22;20351;-83
2022/01/28 03:59:50;;;;;;;24.52;4.88;;;6.20;99.90;;;;;;6277463;22;20020;-83
2022/01/28 04:02:20;;;;;;;21.35;3.20;;;6.20;99.90;;;;;;6250335;22;20459;-82
2022/01/28 04:11:27;;;;;;;25.33;4.55;;;6.20;99.90;;;;;;6250298;22;20027;-84
2022/01/28 04:12:56;;;;;;;15.40;3.00;;;6.10;99.90;;;;;;6250173;22;20016;-86
2022/01/28 04:15:51;;;;;;;15.60;3.58;;;6.10;99.90;;;;;;6277688;22;20458;-81
2022/01/28 04:18:16;;;;;;;17.05;3.60;;;6.10;99.90;;;;;;6277392;22;20015;-81
2022/01/28 04:20:42;;;;;;;16.80;3.63;;;6.10;99.90;;;;;;6277582;22;20058;-81
2022/01/28 04:23:08;;;;;;;19.75;3.13;;;6.10;99.90;;;;;;6277582;22;20015;-83
2022/01/28 04:25:33;;;;;;;19.98;4.20;;;6.10;99.90;;;;;;6250076;22;20141;-82
2022/01/28 04:27:59;;;;;;;19.88;3.53;;;6.10;99.90;;;;;;6250144;22;20015;-83
2022/01/28 04:30:24;;;;;;;16.10;2.58;;;6.10;99.90;;;;;;6250064;22;20019;-83
2022/01/28 04:32:51;;;;;;;20.88;2.90;;;6.10;99.90;;;;;;6250125;22;20016;-83
2022/01/28 04:35:17;;;;;;;12.43;2.28;;;6.00;99.90;;;;;;6249931;22;20074;-83
2022/01/28 04:37:56;;;;;;;10.23;2.13;;;6.00;99.90;;;;;;6277459;22;20039;-83
2022/01/28 04:40:28;;;;;;;22.88;4.15;;;6.00;99.90;;;;;;6250022;22;20022;-83
2022/01/28 04:46:07;;;;;;;24.42;3.65;;;6.00;99.90;;;;;;6153931;23;20033;-83
2022/01/28 04:48:54;;;;;;;12.90;2.97;;;6.00;99.90;;;;;;6262215;22;20026;-85
2022/01/28 04:51:46;;;;;;;22.45;3.42;;;6.00;99.90;;;;;;6249771;22;20019;-84
2022/01/28 04:54:26;;;;;;;18.77;2.90;;;5.90;99.90;;;;;;6276387;22;20142;-84
2022/01/28 04:57:03;;;;;;;18.42;2.80;;;5.90;99.90;;;;;;6277784;22;20158;-83
2022/01/28 04:59:48;;;;;;;22.60;4.07;;;5.90;99.90;;;;;;6277001;22;20436;-83
2022/01/28 05:02:30;;;;;;;19.70;3.78;;;5.90;99.90;;;;;;6276990;22;20321;-83
2022/01/28 05:07:54;;;;;;;15.88;2.60;;;5.80;99.90;;;;;;6249910;22;20354;-83
2022/01/28 05:26:35;;;;;;;15.50;2.40;;;5.80;99.90;;;;;;6277243;22;20088;-81
2022/01/28 05:29:01;;;;;;;12.50;2.03;;;5.80;99.90;;;;;;6277134;22;20051;-81
2022/01/28 05:31:26;;;;;;;18.35;3.75;;;5.80;99.90;;;;;;6276712;22;20367;-81
2022/01/28 05:33:52;;;;;;;17.60;2.53;;;5.80;99.90;;;;;;6277095;22;20012;-81
2022/01/28 05:36:18;;;;;;;13.88;3.83;;;5.80;99.90;;;;;;6249889;22;20023;-81
2022/01/28 05:38:44;;;;;;;12.07;2.30;;;5.90;99.90;;;;;;6277098;22;20011;-81
2022/01/28 05:41:10;;;;;;;11.45;2.30;;;5.80;99.90;;;;;;6277198;22;20018;-81
2022/01/28 05:43:36;;;;;;;12.75;3.03;;;5.90;99.90;;;;;;6276885;22;20055;-81
2022/01/28 05:46:02;;;;;;;26.98;4.47;;;5.90;99.90;;;;;;6277030;22;20145;-82
2022/01/28 05:48:28;;;;;;;19.38;3.35;;;5.90;99.90;;;;;;6277166;22;20016;-82
2022/01/28 05:50:53;;;;;;;17.00;2.45;;;6.00;99.90;;;;;;6249545;22;20020;-81
2022/01/28 05:53:19;;;;;;;22.55;3.40;;;6.00;99.90;;;;;;6277088;22;20016;-81
2022/01/28 05:55:45;;;;;;;20.55;2.92;;;6.00;99.90;;;;;;6276790;22;20045;-81
2022/01/28 05:58:10;;;;;;;15.52;3.85;;;6.00;99.90;;;;;;6276788;22;20020;-81
2022/01/28 06:00:36;;;;;;;18.65;2.67;;;6.00;99.90;;;;;;6277033;22;20047;-81
2022/01/28 06:03:02;;;;;;;20.48;3.53;;;6.00;99.90;;;;;;6277723;22;20118;-81
2022/01/28 06:05:30;;;;;;;23.38;4.90;;;6.00;99.90;;;;;;6278600;22;20097;-81
2022/01/28 06:07:57;;;;;;;24.40;3.88;;;6.00;99.90;;;;;;6251210;22;20340;-81
2022/01/28 06:10:23;;;;;;;17.77;2.67;;;6.00;99.90;;;;;;6278727;22;20474;-81
2022/01/28 06:12:48;;;;;;;21.40;3.38;;;6.00;99.90;;;;;;6278866;22;20090;-81
2022/01/28 06:15:14;;;;;;;12.02;2.88;;;6.00;99.90;;;;;;6278764;22;20436;-81
2022/01/28 06:17:40;;;;;;;22.25;4.53;;;6.00;99.90;;;;;;6278765;22;20039;-81
2022/01/28 06:20:09;;;;;;;19.38;3.95;;;6.00;99.90;;;;;;6278773;22;20098;-81
2022/01/28 06:22:40;;;;;;;21.88;3.30;;;6.10;99.90;;;;;;6278338;22;20520;-81
2022/01/28 06:25:07;;;;;;;12.25;3.47;;;6.00;99.90;;;;;;6251265;22;20020;-82
2022/01/28 06:27:32;;;;;;;15.80;2.88;;;6.10;99.90;;;;;;6278243;22;20478;-82
2022/01/28 06:29:58;;;;;;;20.58;2.30;;;6.10;99.90;;;;;;6278595;22;20012;-81
2022/01/28 06:32:23;;;;;;;16.23;3.28;;;6.10;99.90;;;;;;6278638;22;20011;-81
2022/01/28 06:34:49;;;;;;;16.15;2.30;;;6.10;99.90;;;;;;6278577;22;20012;-81
2022/01/28 06:37:15;;;;;;;17.65;3.33;;;6.10;99.90;;;;;;6251158;22;20340;-81
2022/01/28 06:39:40;;;;;;;23.20;3.40;;;6.00;99.90;;;;;;6278601;22;20501;-81
2022/01/28 06:42:06;;;;;;;24.92;3.80;;;6.00;99.90;;;;;;6278531;22;20012;-81
2022/01/28 06:44:32;;;;;;;21.73;2.97;;;6.00;99.90;;;;;;6251095;22;20023;-81
2022/01/28 06:46:58;;;;;;;18.95;3.20;;;6.00;99.90;;;;;;6278496;22;20047;-81
2022/01/28 06:49:24;;;;;;;23.98;3.20;;;6.00;99.90;;;;;;6250949;22;20047;-81
2022/01/28 06:51:49;;;;;;;13.23;1.83;;;6.10;99.90;;;;;;6251086;22;20012;-81
2022/01/28 06:54:15;;;;;;;19.40;3.80;;;6.00;99.90;;;;;;6278373;22;20339;-81
2022/01/28 06:56:41;;;;;;;20.73;4.20;;;6.10;99.90;;;;;;6278063;22;20019;-81
2022/01/28 06:59:06;;;;;;;20.13;3.33;;;6.10;99.90;;;;;;6278062;22;20055;-81
2022/01/28 07:01:32;;;;;;;16.83;2.30;;;6.10;99.90;;;;;;6250938;22;20070;-81
2022/01/28 07:03:58;;;;;;;15.85;2.63;;;6.00;99.90;;;;;;6278274;22;20019;-81
2022/01/28 07:06:24;;;;;;;16.73;2.25;;;6.00;99.90;;;;;;6278234;22;20015;-81
2022/01/28 07:08:50;;;;;;;20.85;2.85;;;6.00;99.90;;;;;;6250358;22;20024;-81
2022/01/28 07:11:17;;;;;;;20.77;3.22;;;5.90;99.90;;;;;;6277944;22;20020;-81
2022/01/28 07:13:43;;;;;;;20.70;2.33;;;5.90;99.90;;;;;;6250225;22;20042;-81
2022/01/28 07:16:09;;;;;;;15.45;3.33;;;5.90;99.90;;;;;;6276608;22;20015;-83
2022/01/28 07:18:35;;;;;;;15.35;2.88;;;5.90;99.90;;;;;;6249386;22;20019;-84
2022/01/28 07:21:00;;;;;;;16.23;3.47;;;5.80;99.90;;;;;;6250556;22;20016;-84
2022/01/28 07:23:26;;;;;;;21.33;3.97;;;5.80;99.90;;;;;;6277558;22;20019;-84
2022/01/28 07:25:52;;;;;;;23.30;4.53;;;5.80;99.90;;;;;;6250251;22;20020;-84
2022/01/28 07:28:17;;;;;;;22.92;3.45;;;5.80;99.90;;;;;;6277928;22;20019;-84
2022/01/28 07:30:43;;;;;;;19.90;2.70;;;5.80;99.90;;;;;;6250351;22;20023;-84
2022/01/28 07:33:10;;;;;;;14.50;2.90;;;5.80;99.90;;;;;;6277631;22;20091;-84
2022/01/28 07:35:36;;;;;;;14.90;2.90;;;5.80;99.90;;;;;;6277497;22;20050;-83
2022/01/28 07:38:02;;;;;;;17.88;3.03;;;5.80;99.90;;;;;;6277461;22;20019;-84
2022/01/28 07:40:28;;;;;;;23.02;4.63;;;5.70;99.90;;;;;;6277501;22;20024;-83
2022/01/28 07:42:54;;;;;;;23.02;2.88;;;5.70;99.90;;;;;;6250933;22;20019;-84
2022/01/28 07:45:20;;;;;;;20.75;4.15;;;5.70;99.90;;;;;;6277843;22;20339;-84
2022/01/28 07:47:46;;;;;;;24.13;4.35;;;5.70;99.90;;;;;;6277407;22;20024;-84
2022/01/28 07:50:13;;;;;;;32.38;4.38;;;5.70;99.90;;;;;;6277604;22;20018;-83
2022/01/28 07:52:39;;;;;;;30.10;5.15;;;5.70;99.90;;;;;;6250296;22;20087;-83
2022/01/28 07:55:06;;;;;;;22.50;3.22;;;5.70;99.90;;;;;;6277366;22;20050;-83
2022/01/28 07:57:32;;;;;;;38.13;5.38;;;5.70;99.90;;;;;;6277669;22;20016;-83
2022/01/28 07:59:58;;;;;;;19.23;3.45;;;5.80;99.90;;;;;;6250196;22;20016;-83
2022/01/28 08:02:24;;;;;;;18.60;3.05;;;5.80;99.90;;;;;;6250137;22;20047;-83
2022/01/28 08:04:49;;;;;;;20.38;3.30;;;5.70;99.90;;;;;;6277569;22;20016;-81
2022/01/28 08:07:15;;;;;;;17.77;4.65;;;5.80;99.90;;;;;;6277658;22;20370;-81
2022/01/28 08:09:41;;;;;;;32.10;3.95;;;5.80;99.90;;;;;;6249717;22;20016;-83
2022/01/28 08:12:07;;;;;;;19.58;3.72;;;5.90;99.90;;;;;;6277527;22;20012;-83
2022/01/28 08:14:33;;;;;;;23.85;3.58;;;5.90;99.90;;;;;;6250190;22;20016;-80
2022/01/28 08:16:59;;;;;;;18.63;3.28;;;5.90;99.90;;;;;;6277442;22;20094;-80
2022/01/28 08:19:24;;;;;;;21.38;2.90;;;5.90;99.90;;;;;;6277387;22;20015;-81
2022/01/28 08:21:50;;;;;;;26.00;3.50;;;5.90;99.90;;;;;;6249918;22;20454;-80
2022/01/28 08:24:16;;;;;;;18.30;3.15;;;5.80;99.90;;;;;;6276225;22;20086;-79
2022/01/28 08:26:41;;;;;;;23.40;4.22;;;5.80;99.90;;;;;;6276570;22;20020;-78
2022/01/28 08:29:07;;;;;;;21.17;3.63;;;5.80;99.90;;;;;;6276806;22;20022;-79
2022/01/28 08:31:33;;;;;;;23.27;4.43;;;5.90;99.90;;;;;;6276765;22;20062;-78
2022/01/28 08:34:00;;;;;;;18.73;3.03;;;5.90;99.90;;;;;;6276849;22;20435;-78
2022/01/28 08:36:26;;;;;;;14.38;2.90;;;5.90;99.90;;;;;;6277245;22;20012;-78
2022/01/28 08:38:54;;;;;;;15.38;3.03;;;5.90;99.90;;;;;;6276946;22;20019;-78
2022/01/28 08:41:21;;;;;;;15.00;2.67;;;6.00;99.90;;;;;;6276703;22;20027;-79
2022/01/28 08:43:46;;;;;;;24.00;3.78;;;6.00;99.90;;;;;;6277073;22;20022;-77
2022/01/28 08:46:12;;;;;;;23.33;4.30;;;6.00;99.90;;;;;;6276985;22;20011;-79
2022/01/28 08:48:38;;;;;;;20.58;4.70;;;6.00;99.90;;;;;;6276580;22;20321;-81
2022/01/28 08:51:04;;;;;;;20.90;3.15;;;6.10;99.90;;;;;;6276944;22;20024;-79
2022/01/28 08:53:30;;;;;;;21.27;3.53;;;6.10;99.90;;;;;;6276627;22;20019;-79
2022/01/28 08:55:55;;;;;;;20.42;5.28;;;6.10;99.90;;;;;;6276986;22;20018;-79
2022/01/28 08:58:22;;;;;;;28.77;3.55;;;6.10;99.90;;;;;;6249545;22;20020;-79
2022/01/28 09:00:48;;;;;;;21.05;4.22;;;6.20;99.90;;;;;;6276545;22;20467;-80
2022/01/28 09:03:18;;;;;;;16.60;3.95;;;6.30;99.90;;;;;;6276873;22;20047;-79
2022/01/28 09:05:44;;;;;;;17.00;3.80;;;6.30;99.90;;;;;;6276950;22;20012;-79
2022/01/28 09:08:10;;;;;;;24.67;4.47;;;6.30;99.90;;;;;;6276643;22;20015;-79
2022/01/28 09:10:41;;;;;;;18.48;2.95;;;6.30;99.90;;;;;;6249334;22;20026;-80
2022/01/28 09:15:35;;;;;;;14.38;3.53;;;6.50;99.90;;;;;;6276869;22;20051;-80
2022/01/28 09:18:01;;;;;;;15.57;3.67;;;6.50;99.90;;;;;;6249392;22;20016;-79
2022/01/28 09:20:28;;;;;;;25.52;4.32;;;6.50;99.90;;;;;;6275805;22;20051;-79
2022/01/28 09:22:53;;;;;;;21.67;3.38;;;6.60;99.90;;;;;;6248937;22;20016;-80
2022/01/28 09:25:19;;;;;;;20.10;3.08;;;6.50;99.90;;;;;;6249410;22;20007;-79
2022/01/28 09:27:45;;;;;;;29.95;3.35;;;6.60;99.90;;;;;;6275956;22;20443;-79
2022/01/28 09:30:11;;;;;;;27.58;3.35;;;6.60;99.90;;;;;;6249452;22;20020;-79
2022/01/28 09:32:36;;;;;;;24.08;3.72;;;6.50;99.90;;;;;;6276499;22;20012;-81
2022/01/28 09:35:02;;;;;;;18.70;3.05;;;6.50;99.90;;;;;;6276671;22;20336;-81
2022/01/28 09:37:29;;;;;;;14.40;3.47;;;6.50;99.90;;;;;;6277361;22;20015;-81
2022/01/28 09:39:55;;;;;;;13.13;2.63;;;6.50;99.90;;;;;;6251201;22;20098;-81
2022/01/28 09:42:24;;;;;;;22.60;4.00;;;6.50;99.90;;;;;;6278308;22;20477;-81
2022/01/28 09:44:50;;;;;;;13.73;3.03;;;6.60;99.90;;;;;;6251274;22;20028;-81
2022/01/28 09:47:16;;;;;;;23.15;5.55;;;6.60;99.90;;;;;;6251183;22;20047;-81
2022/01/28 09:49:43;;;;;;;15.85;3.05;;;6.50;99.90;;;;;;6278628;22;20037;-81
2022/01/28 09:52:10;;;;;;;29.33;4.75;;;6.60;99.90;;;;;;6278094;22;20018;-81
2022/01/28 09:54:37;;;;;;;21.17;3.17;;;6.50;99.90;;;;;;6278243;22;20120;-81
2022/01/28 09:57:04;;;;;;;22.85;3.22;;;6.60;99.90;;;;;;6278617;22;20019;-81
2022/01/28 09:59:30;;;;;;;20.75;3.75;;;6.60;99.90;;;;;;6278144;22;20039;-81
2022/01/28 10:01:56;;;;;;;23.40;3.50;;;6.60;99.90;;;;;;6278609;22;20335;-82
2022/01/28 10:04:23;;;;;;;18.48;4.53;;;6.60;99.90;;;;;;6250981;22;20011;-81
2022/01/28 10:06:49;;;;;;;19.90;3.63;;;6.60;99.90;;;;;;6250672;22;20198;-81
2022/01/28 10:09:18;;;;;;;26.52;3.38;;;6.50;99.90;;;;;;6277825;22;20077;-81
2022/01/28 10:11:47;;;;;;;17.42;2.90;;;6.60;99.90;;;;;;6250574;22;20076;-81
2022/01/28 10:14:22;;;;;;;19.25;3.20;;;6.60;99.90;;;;;;6277972;22;20112;-81
2022/01/28 10:16:59;;;;;;;23.70;3.65;;;6.60;99.90;;;;;;6250874;22;20016;-82
2022/01/28 10:19:27;;;;;;;29.17;4.78;;;6.60;99.90;;;;;;6278445;22;20008;-80
2022/01/28 10:21:54;;;;;;;17.17;4.07;;;6.50;99.90;;;;;;6277491;22;20463;-80
2022/01/28 10:24:25;;;;;;;16.85;2.53;;;6.60;99.90;;;;;;6277903;22;20027;-81
2022/01/28 10:26:54;;;;;;;20.00;3.85;;;6.60;99.90;;;;;;6277902;22;20016;-81
2022/01/28 10:29:23;;;;;;;22.25;2.92;;;6.50;99.90;;;;;;6250719;22;20035;-81
2022/01/28 10:31:57;;;;;;;26.00;3.70;;;6.60;99.90;;;;;;6277783;22;20012;-81
2022/01/28 10:34:34;;;;;;;43.92;5.93;;;6.60;99.90;;;;;;6277887;22;20047;-81
2022/01/28 10:37:25;;;;;;;24.25;3.80;;;6.60;99.90;;;;;;6277824;22;20062;-79
2022/01/28 10:40:00;;;;;;;27.10;5.25;;;6.60;99.90;;;;;;6271114;22;20113;-79
2022/01/28 10:42:25;;;;;;;24.67;4.43;;;6.60;99.90;;;;;;6250186;22;20394;-80
2022/01/28 10:44:57;;;;;;;24.70;4.18;;;6.60;99.90;;;;;;6250439;22;20439;-80
2022/01/28 10:47:50;;;;;;;32.72;4.18;;;6.70;99.90;;;;;;6277877;22;20012;-80
2022/01/28 10:50:26;;;;;;;21.90;3.85;;;6.80;99.90;;;;;;6272397;22;20020;-79
2022/01/28 10:53:14;;;;;;;18.35;4.05;;;6.90;99.90;;;;;;6250638;22;20020;-79
2022/01/28 10:55:45;;;;;;;24.73;4.22;;;7.10;99.90;;;;;;6277890;22;20012;-79
2022/01/28 10:58:18;;;;;;;26.30;5.07;;;7.30;99.90;;;;;;6250717;22;20019;-80
2022/01/28 11:00:46;;;;;;;34.03;3.72;;;7.50;99.90;;;;;;6277904;22;20010;-80
2022/01/28 11:03:14;;;;;;;21.27;3.22;;;7.50;99.90;;;;;;6277616;22;20023;-79
2022/01/28 11:05:43;;;;;;;22.15;5.13;;;7.50;99.90;;;;;;6250849;22;20022;-80
2022/01/28 11:08:13;;;;;;;32.53;3.85;;;7.50;99.90;;;;;;6277574;22;20020;-83
2022/01/28 11:10:40;;;;;;;21.00;3.50;;;7.50;99.90;;;;;;6250367;22;20030;-79
2022/01/28 11:13:06;;;;;;;22.95;3.95;;;7.40;99.90;;;;;;6250193;22;20034;-80
2022/01/28 11:15:33;;;;;;;22.73;4.95;;;7.40;99.90;;;;;;6250524;22;20027;-79
2022/01/28 11:18:01;;;;;;;20.05;3.42;;;7.50;99.90;;;;;;6277819;22;20011;-80
2022/01/28 11:20:38;;;;;;;17.58;3.28;;;7.50;99.90;;;;;;6250620;22;20020;-80
2022/01/28 11:23:23;;;;;;;26.95;4.93;;;7.50;99.90;;;;;;6277880;22;20086;-79
2022/01/28 11:26:23;;;;;;;25.48;4.15;;;7.60;99.90;;;;;;6277305;22;20390;-79
2022/01/28 11:28:51;;;;;;;25.63;3.60;;;7.60;99.90;;;;;;6250283;22;20053;-79
2022/01/28 11:31:40;;;;;;;24.25;3.50;;;7.50;99.90;;;;;;6250163;22;20016;-79
2022/01/28 11:34:27;;;;;;;20.02;3.95;;;7.50;99.90;;;;;;6277249;22;20016;-79
2022/01/28 11:37:02;;;;;;;25.00;4.85;;;7.40;99.90;;;;;;6277328;22;20019;-80
2022/01/28 11:39:32;;;;;;;22.02;2.80;;;7.40;99.90;;;;;;6277677;22;20022;-79
2022/01/28 11:42:11;;;;;;;21.27;3.10;;;7.50;99.90;;;;;;6250081;22;20093;-79
2022/01/28 11:44:56;;;;;;;17.25;3.08;;;7.50;99.90;;;;;;6277511;22;20035;-79
2022/01/28 11:47:31;;;;;;;19.27;2.88;;;7.60;99.90;;;;;;6250046;22;20015;-80
2022/01/28 11:50:10;;;;;;;15.90;2.75;;;7.70;99.90;;;;;;6277286;22;20012;-80
2022/01/28 11:52:48;;;;;;;18.63;2.50;;;7.70;99.90;;;;;;6277359;22;20016;-79
2022/01/28 11:55:28;;;;;;;15.35;3.05;;;7.70;99.90;;;;;;6277518;22;20019;-79
2022/01/28 11:58:02;;;;;;;13.40;2.35;;;7.80;99.90;;;;;;6277411;22;20019;-79
2022/01/28 12:00:29;;;;;;;13.98;2.92;;;7.70;99.90;;;;;;6249558;22;20094;-79
2022/01/28 12:02:55;;;;;;;12.80;2.33;;;7.70;99.90;;;;;;6249880;22;20027;-80
2022/01/28 12:05:44;;;;;;;9.25;2.40;;;7.70;99.90;;;;;;6277077;22;20439;-80
2022/01/28 12:08:11;;;;;;;17.08;2.88;;;7.80;99.90;;;;;;6194038;22;20023;-79
2022/01/28 12:10:42;;;;;;;12.13;3.28;;;7.80;99.90;;;;;;6249783;22;20019;-79
2022/01/28 12:13:13;;;;;;;13.43;1.95;;;7.80;99.90;;;;;;6249872;22;20011;-76
2022/01/28 12:16:13;;;;;;;18.40;3.10;;;8.00;99.90;;;;;;6249906;22;20347;-76
2022/01/28 12:18:45;;;;;;;16.27;3.60;;;8.10;99.90;;;;;;6249828;22;20020;-76
2022/01/28 12:21:15;;;;;;;13.70;2.55;;;8.20;99.90;;;;;;6249955;22;20042;-76
2022/01/28 12:23:41;;;;;;;13.07;1.98;;;8.30;99.90;;;;;;6249721;22;20344;-77
2022/01/28 12:26:07;;;;;;;17.63;2.65;;;8.30;99.90;;;;;;6249796;22;20011;-76
2022/01/28 12:28:32;;;;;;;13.18;2.72;;;8.20;99.90;;;;;;6249679;22;20455;-76
2022/01/28 12:31:04;;;;;;;16.75;2.90;;;8.40;99.90;;;;;;6249724;22;20107;-76
2022/01/28 12:33:39;;;;;;;10.00;2.05;;;8.20;99.90;;;;;;6249759;22;20091;-77
2022/01/28 12:36:15;;;;;;;18.75;3.03;;;8.30;99.90;;;;;;6249801;22;20027;-76
2022/01/28 12:38:55;;;;;;;15.65;2.92;;;8.30;99.90;;;;;;6249623;22;20085;-76
2022/01/28 12:41:23;;;;;;;13.02;2.30;;;8.20;99.90;;;;;;6277192;22;20015;-76
2022/01/28 12:43:49;;;;;;;14.63;2.97;;;8.40;99.90;;;;;;6249557;22;20153;-76
2022/01/28 12:46:16;;;;;;;17.42;3.53;;;8.40;99.90;;;;;;6249581;22;20492;-76
2022/01/28 12:49:02;;;;;;;16.35;3.90;;;8.50;99.90;;;;;;6249596;22;20065;-77
2022/01/28 12:51:27;;;;;;;23.88;3.70;;;8.50;99.90;;;;;;6277087;22;20022;-76
2022/01/28 12:53:54;;;;;;;13.85;2.15;;;8.50;99.90;;;;;;6249444;22;20090;-77
2022/01/28 12:56:50;;;;;;;14.48;2.25;;;8.60;99.90;;;;;;6249419;22;20024;-84
2022/01/28 12:59:16;;;;;;;13.10;2.50;;;8.60;99.90;;;;;;6251909;22;20015;-84
2022/01/28 13:01:50;;;;;;;8.15;1.80;;;8.60;99.90;;;;;;6249575;22;20027;-81
2022/01/28 13:04:37;;;;;;;16.42;2.88;;;8.50;99.90;;;;;;6249560;22;20016;-88
2022/01/28 13:09:52;;;;;;;12.20;1.52;;;8.50;99.90;;;;;;6249326;22;20019;-87
2022/01/28 13:12:22;;;;;;;15.65;2.17;;;8.50;99.90;;;;;;6250841;22;20330;-82
2022/01/28 13:14:48;;;;;;;13.00;1.75;;;8.50;99.90;;;;;;6278661;22;20025;-82
2022/01/28 13:17:21;;;;;;;16.55;2.70;;;8.60;99.90;;;;;;6250461;22;20098;-82
2022/01/28 13:19:58;;;;;;;17.80;2.28;;;8.50;99.90;;;;;;6278869;22;20016;-82
2022/01/28 13:22:26;;;;;;;14.68;2.25;;;8.60;99.90;;;;;;6251174;22;20015;-82
2022/01/28 13:24:52;;;;;;;15.23;2.08;;;8.60;99.90;;;;;;6251408;22;20027;-82
2022/01/28 13:27:20;;;;;;;17.52;2.33;;;8.50;99.90;;;;;;6278933;22;20016;-82
2022/01/28 13:29:48;;;;;;;13.25;2.20;;;8.50;99.90;;;;;;6278396;22;20022;-81
2022/01/28 13:32:36;;;;;;;17.45;3.47;;;8.50;99.90;;;;;;6278488;22;20339;-82
2022/01/28 13:35:02;;;;;;;15.10;2.35;;;8.50;99.90;;;;;;6250934;22;20011;-82
2022/01/28 13:37:45;;;;;;;17.85;2.95;;;8.50;99.90;;;;;;6278848;22;20012;-82
2022/01/28 13:40:29;;;;;;;14.27;2.78;;;8.50;99.90;;;;;;6251054;22;20022;-81
2022/01/28 13:43:07;;;;;;;17.63;3.03;;;8.50;99.90;;;;;;6251319;22;20019;-85
2022/01/28 13:45:55;;;;;;;18.58;2.60;;;8.60;99.90;;;;;;6250755;22;20149;-83
2022/01/28 13:48:37;;;;;;;16.40;2.78;;;8.50;99.90;;;;;;6251304;22;20451;-83
2022/01/28 13:51:12;;;;;;;11.00;2.38;;;8.50;99.90;;;;;;6250787;22;20050;-83
2022/01/28 13:56:33;;;;;;;19.27;3.45;;;8.40;99.90;;;;;;6249790;22;20027;-82
2022/01/28 13:59:00;;;;;;;13.82;2.75;;;8.40;99.90;;;;;;6251128;22;20045;-82
2022/01/28 14:01:27;;;;;;;16.27;2.58;;;8.40;99.90;;;;;;6251097;22;20078;-82
2022/01/28 14:03:58;;;;;;;14.93;3.00;;;8.30;99.90;;;;;;6251476;22;20054;-82
2022/01/28 14:06:35;;;;;;;13.65;2.65;;;8.40;99.90;;;;;;6278193;22;20020;-81
2022/01/28 14:09:09;;;;;;;14.23;2.22;;;8.30;99.90;;;;;;6278054;22;20084;-82
2022/01/28 14:11:52;;;;;;;10.40;1.88;;;8.20;99.90;;;;;;6250447;22;20089;-82
2022/01/28 14:14:33;;;;;;;13.93;2.53;;;8.20;99.90;;;;;;6250747;22;20015;-81
2022/01/28 14:17:04;;;;;;;6.07;1.58;;;8.20;99.90;;;;;;6251032;22;20045;-81